Time;durP1;ratioP1;P1;durP2;ratioP2;P2;SDS_P1;SDS_P2;PMS_P1;PMS_P2;Temp;Humidity;BMP_temperature;BMP_pressure;BME280_temperature;BME280_humidity;BME280_pressure;Samples;Min_cycle;Max_cycle;Signal;HPM_P1;HPM_P2
2022/05/18 00:01:50;;;;;;;;;;;10.10;85.40;;;;;;5072556;28;20279;-70
2022/05/18 00:04:15;;;;;;;;;;;10.00;85.80;;;;;;5072584;28;19962;-70
2022/05/18 00:06:41;;;;;;;;;;;10.00;86.00;;;;;;5072678;28;20287;-69
2022/05/18 00:09:06;;;;;;;;;;;9.90;86.50;;;;;;5072529;28;20257;-69
2022/05/18 00:11:32;;;;;;;;;;;9.80;87.20;;;;;;5072387;28;19924;-69
2022/05/18 00:13:58;;;;;;;;;;;9.90;87.20;;;;;;5072147;28;19925;-70
2022/05/18 00:16:24;;;;;;;;;;;9.80;87.60;;;;;;5087813;28;20042;-70
2022/05/18 00:18:50;;;;;;;;;;;9.80;88.00;;;;;;5072504;28;19978;-70
2022/05/18 00:21:16;;;;;;;;;;;9.70;88.30;;;;;;5072000;28;19973;-69
2022/05/18 00:23:42;;;;;;;;;;;9.70;88.30;;;;;;5087755;28;19920;-70
2022/05/18 00:26:07;;;;;;;;;;;9.70;88.50;;;;;;5071881;28;20059;-70
2022/05/18 00:28:33;;;;;;;;;;;9.70;88.50;;;;;;5071988;28;19913;-71
2022/05/18 00:30:59;;;;;;;;;;;9.60;88.40;;;;;;5071942;28;19931;-71
2022/05/18 00:33:25;;;;;;;;;;;9.60;88.80;;;;;;5072067;28;20427;-70
2022/05/18 00:35:51;;;;;;;;;;;9.60;89.10;;;;;;5071912;28;19959;-70
2022/05/18 00:38:16;;;;;;;;;;;9.50;89.50;;;;;;5070305;28;19908;-70
2022/05/18 00:40:44;;;;;;;;;;;9.50;89.80;;;;;;5071915;28;19920;-69
2022/05/18 00:43:34;;;;;;;;;;;9.50;90.00;;;;;;5071844;28;20024;-70
2022/05/18 00:46:02;;;;;;;;;;;9.50;90.00;;;;;;5071595;28;20010;-70
2022/05/18 00:48:28;;;;;;;;;;;9.50;90.20;;;;;;5071820;28;19912;-70
2022/05/18 00:50:55;;;;;;;;;;;9.50;90.30;;;;;;5071779;28;19924;-70
2022/05/18 00:53:23;;;;;;;;;;;9.50;90.50;;;;;;5071603;28;20300;-70
2022/05/18 00:55:51;;;;;;;;;;;9.50;90.60;;;;;;5087226;28;19927;-70
2022/05/18 00:58:21;;;;;;;;;;;9.50;90.70;;;;;;5071425;28;20284;-70
2022/05/18 01:00:47;;;;;;;;;;;9.40;90.80;;;;;;5086917;28;19916;-70
2022/05/18 01:03:23;;;;;;;;;;;9.40;91.00;;;;;;5071437;28;19909;-70
2022/05/18 01:05:53;;;;;;;;;;;9.40;91.20;;;;;;5071405;28;19974;-70
2022/05/18 01:08:24;;;;;;;;;;;9.30;91.40;;;;;;5071473;28;20003;-70
2022/05/18 01:10:50;;;;;;;;;;;9.30;91.80;;;;;;5071630;28;20360;-70
2022/05/18 01:13:15;;;;;;;;;;;9.30;92.10;;;;;;5071248;28;20011;-70
2022/05/18 01:15:41;;;;;;;;;;;9.20;92.40;;;;;;5071463;28;19924;-70
2022/05/18 01:18:08;;;;;;;;;;;9.20;92.70;;;;;;5071440;28;19916;-70
2022/05/18 01:20:36;;;;;;;;;;;9.20;93.00;;;;;;5071426;28;20014;-70
2022/05/18 01:23:22;;;;;;;;;;;9.20;93.10;;;;;;5070206;28;19988;-70
2022/05/18 01:25:54;;;;;;;;;;;9.20;93.20;;;;;;5071745;28;20379;-70
2022/05/18 01:28:20;;;;;;;;;;;9.10;93.50;;;;;;5071505;28;20284;-70
2022/05/18 01:30:49;;;;;;;;;;;9.00;93.60;;;;;;5071271;28;19924;-70
2022/05/18 01:33:16;;;;;;;;;;;8.90;93.90;;;;;;5071343;28;20363;-70
2022/05/18 01:35:45;;;;;;;;;;;10.40;94.50;;;;;;5071371;28;19919;-70
2022/05/18 01:38:13;;;;;;;;;;;8.90;94.20;;;;;;5071460;28;19908;-70
2022/05/18 01:40:55;;;;;;;;;;;8.90;94.40;;;;;;5071448;28;20357;-70
2022/05/18 01:43:27;;;;;;;;;;;8.80;94.70;;;;;;5071326;28;20007;-70
2022/05/18 01:45:54;;;;;;;;;;;8.80;94.90;;;;;;5071107;28;19912;-70
2022/05/18 01:48:21;;;;;;;;;;;8.70;95.20;;;;;;5071693;28;19948;-70
2022/05/18 01:50:47;;;;;;;;;;;8.50;95.60;;;;;;5075045;28;19916;-70
2022/05/18 01:53:12;;;;;;;;;;;8.60;96.00;;;;;;5075015;28;20015;-70
2022/05/18 01:55:38;;;;;;;;;;;8.60;96.30;;;;;;5074848;28;19919;-70
2022/05/18 01:58:04;;;;;;;;;;;8.60;96.30;;;;;;5075186;28;19912;-70
2022/05/18 02:00:31;;;;;;;;;;;8.60;96.60;;;;;;5074865;28;19917;-70
2022/05/18 02:02:56;;;;;;;;;;;8.50;96.70;;;;;;5075340;28;20371;-71
2022/05/18 02:05:22;;;;;;;;;;;8.40;97.20;;;;;;5075180;28;19912;-70
2022/05/18 02:07:47;;;;;;;;;;;8.40;97.60;;;;;;5074748;28;19919;-70
2022/05/18 02:10:13;;;;;;;;;;;8.40;98.00;;;;;;5074491;28;19965;-69
2022/05/18 02:12:39;;;;;;;;;;;8.30;98.40;;;;;;5090289;28;20257;-70
2022/05/18 02:15:05;;;;;;;;;;;8.20;99.00;;;;;;5074777;28;19959;-69
2022/05/18 02:17:31;;;;;;;;;;;8.20;99.50;;;;;;5074684;28;20268;-70
2022/05/18 02:19:57;;;;;;;;;;;8.20;99.70;;;;;;5074776;28;20029;-69
2022/05/18 02:22:23;;;;;;;;;;;8.20;99.90;;;;;;5074383;28;19977;-69
2022/05/18 02:24:48;;;;;;;;;;;8.10;99.90;;;;;;5074713;28;19916;-69
2022/05/18 02:27:14;;;;;;;;;;;8.10;99.90;;;;;;5074375;28;20292;-70
2022/05/18 02:29:42;;;;;;;;;;;8.10;99.90;;;;;;5073900;28;21519;-69
2022/05/18 02:32:09;;;;;;;;;;;8.10;99.90;;;;;;5074222;28;19956;-69
2022/05/18 02:34:34;;;;;;;;;;;8.10;99.90;;;;;;5074569;28;20408;-69
2022/05/18 02:37:00;;;;;;;;;;;8.10;99.90;;;;;;5074724;28;19955;-70
2022/05/18 02:39:25;;;;;;;;;;;8.00;99.90;;;;;;5074282;28;20282;-70
2022/05/18 02:41:51;;;;;;;;;;;8.00;99.90;;;;;;5074054;28;19917;-70
2022/05/18 02:44:17;;;;;;;;;;;7.90;99.90;;;;;;5074084;28;19913;-69
2022/05/18 02:46:42;;;;;;;;;;;7.90;99.90;;;;;;5074025;28;20276;-69
2022/05/18 02:49:08;;;;;;;;;;;7.90;99.90;;;;;;5074026;28;19913;-69
2022/05/18 02:51:34;;;;;;;;;;;7.80;99.90;;;;;;5073917;28;20284;-70
2022/05/18 02:53:59;;;;;;;;;;;7.70;99.90;;;;;;5073905;28;20372;-69
2022/05/18 02:56:26;;;;;;;;;;;7.80;99.90;;;;;;5074029;28;20261;-69
2022/05/18 02:58:52;;;;;;;;;;;7.80;99.90;;;;;;5074221;28;20293;-69
2022/05/18 03:01:19;;;;;;;;;;;7.80;99.90;;;;;;5073276;28;19912;-70
2022/05/18 03:03:45;;;;;;;;;;;7.70;99.90;;;;;;5089305;28;19964;-69
2022/05/18 03:06:11;;;;;;;;;;;7.70;99.90;;;;;;5073712;28;20005;-69
2022/05/18 03:08:38;;;;;;;;;;;7.60;99.90;;;;;;5073854;28;19916;-69
2022/05/18 03:11:04;;;;;;;;;;;7.60;99.90;;;;;;5073801;28;19935;-69
2022/05/18 03:13:29;;;;;;;;;;;7.60;99.90;;;;;;5073630;28;19916;-71
2022/05/18 03:15:55;;;;;;;;;;;7.60;99.90;;;;;;5073520;28;19920;-70
2022/05/18 03:18:21;;;;;;;;;;;7.60;99.90;;;;;;5088836;28;19916;-71
2022/05/18 03:23:33;;;;;;;;;;;7.50;99.90;;;;;;5073482;28;19926;-70
2022/05/18 03:26:08;;;;;;;;;;;7.50;99.90;;;;;;5073315;28;20304;-70
2022/05/18 03:28:34;;;;;;;;;;;7.50;99.90;;;;;;5073131;28;19913;-70
2022/05/18 03:31:00;;;;;;;;;;;7.60;99.90;;;;;;5073058;28;19916;-70
2022/05/18 03:33:25;;;;;;;;;;;7.50;99.90;;;;;;5072975;28;19920;-70
2022/05/18 03:35:51;;;;;;;;;;;7.60;99.90;;;;;;5072929;28;19919;-71
2022/05/18 03:38:17;;;;;;;;;;;7.70;99.90;;;;;;5072948;28;19909;-70
2022/05/18 03:40:43;;;;;;;;;;;7.70;99.90;;;;;;5072922;28;19939;-70
2022/05/18 03:43:08;;;;;;;;;;;7.80;99.90;;;;;;5072782;28;19967;-71
2022/05/18 03:45:34;;;;;;;;;;;7.80;99.90;;;;;;5072880;28;20544;-70
2022/05/18 03:48:00;;;;;;;;;;;7.80;99.90;;;;;;5072960;28;19916;-70
2022/05/18 03:50:28;;;;;;;;;;;7.80;99.90;;;;;;5072762;28;19916;-70
2022/05/18 03:52:54;;;;;;;;;;;7.80;99.90;;;;;;5072924;28;19952;-70
2022/05/18 03:55:19;;;;;;;;;;;7.80;99.90;;;;;;5073070;28;20395;-70
2022/05/18 03:57:45;;;;;;;;;;;7.80;99.90;;;;;;5072596;28;19913;-69
2022/05/18 04:00:10;;;;;;;;;;;7.90;99.90;;;;;;5072763;28;19919;-70
2022/05/18 04:02:36;;;;;;;;;;;7.80;99.90;;;;;;5072448;28;20372;-70
2022/05/18 04:05:02;;;;;;;;;;;7.80;99.90;;;;;;5072271;28;19961;-70
2022/05/18 04:07:27;;;;;;;;;;;7.80;99.90;;;;;;5072510;28;19919;-70
2022/05/18 04:09:53;;;;;;;;;;;7.70;99.90;;;;;;5072589;28;19920;-70
2022/05/18 04:12:18;;;;;;;;;;;7.70;99.90;;;;;;5071353;28;19938;-71
2022/05/18 04:14:44;;;;;;;;;;;7.80;99.90;;;;;;5072501;28;19917;-71
2022/05/18 04:17:09;;;;;;;;;;;7.80;99.90;;;;;;5072463;28;20256;-71
2022/05/18 04:19:35;;;;;;;;;;;7.90;99.90;;;;;;5072669;28;19912;-71
2022/05/18 04:22:00;;;;;;;;;;;7.90;99.90;;;;;;5072134;28;19924;-70
2022/05/18 04:24:26;;;;;;;;;;;7.90;99.90;;;;;;5072341;28;19916;-70
2022/05/18 04:26:51;;;;;;;;;;;7.90;99.90;;;;;;5072003;28;19908;-70
2022/05/18 04:29:17;;;;;;;;;;;8.00;99.90;;;;;;5071948;28;19916;-71
2022/05/18 04:31:42;;;;;;;;;;;8.00;99.90;;;;;;5071981;28;19908;-71
2022/05/18 04:34:08;;;;;;;;;;;8.10;99.90;;;;;;5071712;28;19920;-71
2022/05/18 04:36:33;;;;;;;;;;;9.60;99.90;;;;;;5071827;28;19918;-71
2022/05/18 04:38:59;;;;;;;;;;;8.30;99.90;;;;;;5071844;28;19927;-71
2022/05/18 04:41:24;;;;;;;;;;;8.30;99.90;;;;;;5071874;28;20023;-71
2022/05/18 04:43:50;;;;;;;;;;;8.30;99.90;;;;;;5071768;28;19924;-71
2022/05/18 04:46:16;;;;;;;;;;;8.30;99.90;;;;;;5071761;28;20376;-71
2022/05/18 04:48:42;;;;;;;;;;;8.30;99.90;;;;;;5071703;28;19927;-71
2022/05/18 04:51:07;;;;;;;;;;;8.30;99.90;;;;;;5071760;28;19995;-70
2022/05/18 04:53:36;;;;;;;;;;;8.30;99.90;;;;;;5071349;28;20066;-70
2022/05/18 04:56:02;;;;;;;;;;;8.30;99.90;;;;;;5071587;28;19957;-70
2022/05/18 04:58:28;;;;;;;;;;;8.20;99.90;;;;;;5071396;28;19943;-70
2022/05/18 05:00:58;;;;;;;;;;;8.30;99.90;;;;;;5071288;28;20327;-70
2022/05/18 05:03:24;;;;;;;;;;;8.30;99.90;;;;;;5071251;28;20326;-70
2022/05/18 05:05:49;;;;;;;;;;;8.40;99.90;;;;;;5071433;28;19912;-71
2022/05/18 05:08:15;;;;;;;;;;;8.40;99.90;;;;;;5071360;28;19908;-71
2022/05/18 05:10:40;;;;;;;;;;;8.30;99.90;;;;;;5071733;28;20335;-70
2022/05/18 05:13:06;;;;;;;;;;;8.30;99.90;;;;;;5071222;28;20325;-70
2022/05/18 05:15:31;;;;;;;;;;;8.40;99.90;;;;;;5071595;28;19908;-70
2022/05/18 05:17:56;;;;;;;;;;;8.40;99.90;;;;;;5069976;28;20372;-70
2022/05/18 05:20:22;;;;;;;;;;;8.40;99.90;;;;;;5071728;28;19962;-71
2022/05/18 05:22:48;;;;;;;;;;;8.50;99.90;;;;;;5071175;28;19920;-71
2022/05/18 05:25:14;;;;;;;;;;;8.50;99.90;;;;;;5071414;28;19944;-70
2022/05/18 05:27:39;;;;;;;;;;;8.60;99.90;;;;;;5071142;28;19927;-69
2022/05/18 05:30:05;;;;;;;;;;;8.50;99.90;;;;;;5071077;28;19916;-70
2022/05/18 05:32:31;;;;;;;;;;;8.50;99.90;;;;;;5071505;28;19909;-69
2022/05/18 05:34:57;;;;;;;;;;;8.40;99.90;;;;;;5070889;28;19938;-70
2022/05/18 05:37:22;;;;;;;;;;;8.40;99.90;;;;;;5086746;28;19908;-70
2022/05/18 05:39:48;;;;;;;;;;;8.40;99.90;;;;;;5071606;28;20352;-70
2022/05/18 05:42:13;;;;;;;;;;;8.40;99.90;;;;;;5071425;28;19915;-70
2022/05/18 05:44:39;;;;;;;;;;;8.40;99.90;;;;;;5071145;28;19921;-70
2022/05/18 05:47:04;;;;;;;;;;;8.50;99.90;;;;;;5071004;28;19978;-70
2022/05/18 05:49:30;;;;;;;;;;;8.50;99.90;;;;;;5071074;28;20340;-70
2022/05/18 05:51:56;;;;;;;;;;;8.60;99.90;;;;;;5071119;28;20328;-70
2022/05/18 05:54:22;;;;;;;;;;;8.60;99.90;;;;;;5071028;28;19921;-70
2022/05/18 05:56:47;;;;;;;;;;;8.60;99.90;;;;;;5070887;28;20422;-70
2022/05/18 05:59:13;;;;;;;;;;;8.60;99.90;;;;;;5070858;28;20007;-70
2022/05/18 06:01:39;;;;;;;;;;;8.60;99.90;;;;;;5070707;28;19909;-70
2022/05/18 06:04:07;;;;;;;;;;;8.70;99.90;;;;;;5070929;28;19927;-70
2022/05/18 06:06:37;;;;;;;;;;;8.70;99.90;;;;;;5070882;28;19916;-70
2022/05/18 06:09:03;;;;;;;;;;;8.70;99.90;;;;;;5070997;28;19970;-70
2022/05/18 06:11:29;;;;;;;;;;;8.70;99.90;;;;;;5086220;28;19952;-70
2022/05/18 06:13:54;;;;;;;;;;;8.70;99.90;;;;;;5070663;28;19963;-70
2022/05/18 06:16:20;;;;;;;;;;;8.70;99.90;;;;;;5070702;28;19912;-70
2022/05/18 06:18:45;;;;;;;;;;;8.70;99.90;;;;;;5070697;28;19927;-70
2022/05/18 06:21:11;;;;;;;;;;;8.70;99.90;;;;;;5069328;28;19917;-70
2022/05/18 06:23:37;;;;;;;;;;;8.70;99.90;;;;;;5070813;28;19920;-70
2022/05/18 06:26:03;;;;;;;;;;;8.70;99.90;;;;;;5070522;28;19909;-70
2022/05/18 06:28:28;;;;;;;;;;;8.70;99.90;;;;;;5070389;28;19920;-70
2022/05/18 06:30:54;;;;;;;;;;;8.70;99.90;;;;;;5070537;28;19943;-70
2022/05/18 06:33:20;;;;;;;;;;;8.70;99.90;;;;;;5070194;28;19913;-70
2022/05/18 06:35:47;;;;;;;;;;;8.70;99.90;;;;;;5071428;28;19958;-70
2022/05/18 06:38:13;;;;;;;;;;;8.60;99.90;;;;;;5074312;28;19915;-70
2022/05/18 06:43:23;;;;;;;;;;;8.60;99.90;;;;;;5074515;28;19932;-71
2022/05/18 06:45:49;;;;;;;;;;;8.60;99.90;;;;;;5073738;28;19912;-71
2022/05/18 06:48:14;;;;;;;;;;;8.60;99.90;;;;;;5073875;28;19909;-71
2022/05/18 06:50:40;;;;;;;;;;;8.70;99.90;;;;;;5089215;28;19909;-70
2022/05/18 06:53:05;;;;;;;;;;;8.80;99.90;;;;;;5073746;28;20410;-70
2022/05/18 06:55:31;;;;;;;;;;;8.70;99.90;;;;;;5073687;28;19951;-70
2022/05/18 06:57:56;;;;;;;;;;;8.80;99.90;;;;;;5073683;28;20361;-70
2022/05/18 07:00:22;;;;;;;;;;;8.80;99.90;;;;;;5073930;28;19916;-70
2022/05/18 07:02:47;;;;;;;;;;;8.80;99.90;;;;;;5089229;28;19916;-69
2022/05/18 07:05:13;;;;;;;;;;;8.80;99.90;;;;;;5073972;28;19987;-71
2022/05/18 07:07:38;;;;;;;;;;;8.80;99.90;;;;;;5072428;28;20249;-70
2022/05/18 07:10:04;;;;;;;;;;;8.70;99.90;;;;;;5073778;28;20015;-70
2022/05/18 07:12:30;;;;;;;;;;;8.70;99.90;;;;;;5073556;28;19917;-71
2022/05/18 07:14:57;;;;;;;;;;;8.70;99.90;;;;;;5073709;28;19927;-71
2022/05/18 07:17:22;;;;;;;;;;;8.70;99.90;;;;;;5073388;28;19934;-71
2022/05/18 07:19:48;;;;;;;;;;;8.60;99.90;;;;;;5073609;28;19920;-70
2022/05/18 07:22:13;;;;;;;;;;;8.60;99.90;;;;;;5073225;28;19920;-70
2022/05/18 07:24:39;;;;;;;;;;;8.60;99.90;;;;;;5073580;28;20348;-69
2022/05/18 07:27:04;;;;;;;;;;;8.60;99.90;;;;;;5073222;28;19916;-69
2022/05/18 07:29:30;;;;;;;;;;;8.70;99.90;;;;;;5073338;28;19978;-70
2022/05/18 07:32:13;;;;;;;;;;;8.70;99.90;;;;;;5073108;28;19916;-69
2022/05/18 07:34:44;;;;;;;;;;;8.80;99.90;;;;;;5073371;28;19928;-70
2022/05/18 07:37:10;;;;;;;;;;;8.80;99.90;;;;;;5073410;28;20407;-70
2022/05/18 07:39:36;;;;;;;;;;;8.90;99.90;;;;;;5073174;28;19923;-70
2022/05/18 07:42:02;;;;;;;;;;;8.90;99.90;;;;;;5072682;28;20447;-70
2022/05/18 07:44:28;;;;;;;;;;;8.80;99.90;;;;;;5073181;28;20019;-70
2022/05/18 07:46:54;;;;;;;;;;;8.80;99.90;;;;;;5072681;28;20087;-70
2022/05/18 07:49:19;;;;;;;;;;;8.80;99.90;;;;;;5072900;28;19931;-70
2022/05/18 07:51:45;;;;;;;;;;;8.80;99.90;;;;;;5073035;28;20376;-71
2022/05/18 07:54:12;;;;;;;;;;;8.80;99.90;;;;;;5072663;28;20367;-71
2022/05/18 07:56:37;;;;;;;;;;;8.90;99.90;;;;;;5072823;28;19908;-71
2022/05/18 07:59:03;;;;;;;;;;;8.90;99.90;;;;;;5072651;28;20026;-71
2022/05/18 08:01:29;;;;;;;;;;;8.90;99.90;;;;;;5072377;28;20375;-71
2022/05/18 08:03:54;;;;;;;;;;;8.90;99.90;;;;;;5072516;28;20008;-70
2022/05/18 08:06:20;;;;;;;;;;;8.90;99.90;;;;;;5072445;28;20265;-71
2022/05/18 08:08:45;;;;;;;;;;;8.80;99.90;;;;;;5072517;28;19924;-69
2022/05/18 08:16:40;;;;;;;;;;;8.80;99.90;;;;;;5072297;28;20421;-70
2022/05/18 08:19:10;;;;;;;;;;;8.80;99.90;;;;;;5072442;28;20359;-69
2022/05/18 08:21:37;;;;;;;;;;;8.80;99.90;;;;;;5071902;28;20284;-70
2022/05/18 08:24:03;;;;;;;;;;;8.80;99.90;;;;;;5072361;28;20356;-69
2022/05/18 08:26:30;;;;;;;;;;;8.70;99.90;;;;;;5072209;28;19908;-69
2022/05/18 08:28:56;;;;;;;;;;;8.70;99.90;;;;;;5072084;28;20304;-70
2022/05/18 08:31:23;;;;;;;;;;;8.70;99.90;;;;;;5071972;28;19944;-70
2022/05/18 08:33:49;;;;;;;;;;;8.70;99.90;;;;;;5071696;28;20376;-71
2022/05/18 08:36:16;;;;;;;;;;;8.70;99.90;;;;;;5087437;28;19913;-71
2022/05/18 08:38:42;;;;;;;;;;;8.80;99.90;;;;;;5071908;28;19923;-71
2022/05/18 08:41:07;;;;;;;;;;;8.80;99.90;;;;;;5071931;28;20340;-70
2022/05/18 08:43:34;;;;;;;;;;;8.80;99.90;;;;;;5071825;28;19920;-70
2022/05/18 08:46:03;;;;;;;;;;;8.90;99.90;;;;;;5071856;28;19912;-71
2022/05/18 08:48:42;;;;;;;;;;;8.80;99.90;;;;;;5071758;28;19925;-71
2022/05/18 08:51:28;;;;;;;;;;;8.80;99.90;;;;;;5087023;28;20372;-69
2022/05/18 08:54:12;;;;;;;;;;;8.80;99.90;;;;;;5060880;28;19921;-70
2022/05/18 08:56:42;;;;;;;;;;;8.70;99.90;;;;;;5070395;28;19909;-70
2022/05/18 08:59:13;;;;;;;;;;;8.70;99.90;;;;;;5071050;28;20312;-70
2022/05/18 09:01:41;;;;;;;;;;;8.70;99.90;;;;;;5071460;28;19909;-70
2022/05/18 09:04:11;;;;;;;;;;;8.70;99.90;;;;;;5071432;28;20291;-70
2022/05/18 09:06:42;;;;;;;;;;;8.70;99.90;;;;;;5071395;28;19908;-69
2022/05/18 09:11:56;;;;;;;;;;;8.70;99.90;;;;;;5071869;28;20287;-70
2022/05/18 09:14:22;;;;;;;;;;;8.70;99.90;;;;;;5071313;28;19924;-70
2022/05/18 09:16:54;;;;;;;;;;;8.70;99.90;;;;;;5071176;28;19999;-70
2022/05/18 09:19:33;;;;;;;;;;;8.70;99.90;;;;;;5071409;28;20307;-71
2022/05/18 09:21:58;;;;;;;;;;;8.70;99.90;;;;;;5070931;28;19920;-70
2022/05/18 09:24:24;;;;;;;;;;;8.70;99.90;;;;;;5071289;28;20385;-70
2022/05/18 09:26:55;;;;;;;;;;;8.80;99.90;;;;;;5071488;28;19974;-70
2022/05/18 09:29:27;;;;;;;;;;;8.70;99.90;;;;;;5070739;28;19928;-70
2022/05/18 09:32:25;;;;;;;;;;;8.70;99.90;;;;;;5071417;28;19909;-70
2022/05/18 09:34:50;;;;;;;;;;;8.70;99.90;;;;;;5036420;28;20368;-70
2022/05/18 09:37:21;;;;;;;;;;;8.80;99.90;;;;;;5071074;28;19914;-71
2022/05/18 09:39:51;;;;;;;;;;;8.80;99.90;;;;;;5069676;28;20273;-70
2022/05/18 09:42:20;;;;;;;;;;;8.70;99.90;;;;;;5071084;28;19935;-69
2022/05/18 09:45:12;;;;;;;;;;;8.70;99.90;;;;;;5071398;28;19962;-70
2022/05/18 09:47:45;;;;;;;;;;;8.70;99.90;;;;;;5067751;28;20456;-70
2022/05/18 09:50:11;;;;;;;;;;;8.70;99.90;;;;;;5071271;28;19921;-70
2022/05/18 09:52:38;;;;;;;;;;;8.70;99.90;;;;;;5070949;28;19916;-69
2022/05/18 09:55:05;;;;;;;;;;;8.80;99.90;;;;;;5071010;28;19920;-70
2022/05/18 09:57:36;;;;;;;;;;;8.90;99.90;;;;;;5070769;28;19912;-71
2022/05/18 10:00:07;;;;;;;;;;;8.90;99.90;;;;;;5069385;28;19916;-71
2022/05/18 10:08:14;;;;;;;;;;;9.10;99.90;;;;;;5070846;28;19919;-71
2022/05/18 10:10:40;;;;;;;;;;;9.10;99.90;;;;;;5073404;28;19913;-71
2022/05/18 10:13:12;;;;;;;;;;;9.20;99.90;;;;;;5074439;28;19999;-69
2022/05/18 10:15:45;;;;;;;;;;;9.30;99.90;;;;;;5074539;28;20253;-70
2022/05/18 10:18:23;;;;;;;;;;;9.40;99.90;;;;;;5074365;28;19912;-69
2022/05/18 10:21:04;;;;;;;;;;;9.40;99.90;;;;;;5074296;28;20380;-70
2022/05/18 10:23:34;;;;;;;;;;;9.50;99.90;;;;;;5074381;28;19924;-70
2022/05/18 10:26:00;;;;;;;;;;;9.50;99.90;;;;;;5074326;28;19912;-70
2022/05/18 10:28:27;;;;;;;;;;;9.60;99.90;;;;;;5074183;28;19921;-70
2022/05/18 10:30:57;;;;;;;;;;;9.60;99.90;;;;;;5074313;28;20364;-71
2022/05/18 10:33:28;;;;;;;;;;;9.50;99.90;;;;;;5089618;28;20255;-69
2022/05/18 10:35:54;;;;;;;;;;;9.50;99.90;;;;;;5074499;28;19915;-70
2022/05/18 10:38:22;;;;;;;;;;;9.40;99.90;;;;;;5074135;28;20344;-71
2022/05/18 10:40:48;;;;;;;;;;;9.40;99.90;;;;;;5074349;28;19909;-71
2022/05/18 10:43:33;;;;;;;;;;;9.40;99.90;;;;;;5074412;28;20358;-70
2022/05/18 10:46:03;;;;;;;;;;;9.40;99.90;;;;;;5074186;28;19909;-71
2022/05/18 10:48:30;;;;;;;;;;;9.40;99.90;;;;;;5089558;28;19970;-69
2022/05/18 10:51:00;;;;;;;;;;;9.40;99.90;;;;;;5089771;28;19978;-70
2022/05/18 10:53:31;;;;;;;;;;;9.30;99.90;;;;;;5073506;28;19921;-71
2022/05/18 10:55:56;;;;;;;;;;;9.30;99.90;;;;;;5055845;28;19909;-70
2022/05/18 10:58:23;;;;;;;;;;;9.30;99.90;;;;;;5073716;28;20394;-70
2022/05/18 11:00:52;;;;;;;;;;;9.20;99.90;;;;;;5073891;28;20000;-71
2022/05/18 11:03:27;;;;;;;;;;;9.20;99.90;;;;;;5073857;28;20360;-71
2022/05/18 11:06:01;;;;;;;;;;;9.20;99.90;;;;;;5072361;28;19958;-70
2022/05/18 11:08:30;;;;;;;;;;;9.30;99.90;;;;;;5073934;28;19955;-70
2022/05/18 11:11:16;;;;;;;;;;;9.30;99.90;;;;;;5088760;28;19916;-70
2022/05/18 11:13:51;;;;;;;;;;;9.40;99.90;;;;;;5072901;28;20020;-70
2022/05/18 11:16:16;;;;;;;;;;;9.40;99.90;;;;;;5072259;28;20019;-68
2022/05/18 11:18:42;;;;;;;;;;;9.50;99.90;;;;;;5073317;28;20352;-69
2022/05/18 11:21:13;;;;;;;;;;;9.50;99.90;;;;;;5072769;28;19982;-70
2022/05/18 11:23:50;;;;;;;;;;;9.50;99.90;;;;;;5073332;28;20018;-70
2022/05/18 11:26:32;;;;;;;;;;;9.60;99.90;;;;;;5073298;28;19948;-70
2022/05/18 11:29:16;;;;;;;;;;;9.60;99.90;;;;;;5088710;28;20011;-70
2022/05/18 11:31:59;;;;;;;;;;;9.60;99.90;;;;;;5072976;28;19908;-70
2022/05/18 11:34:25;;;;;;;;;;;9.60;99.90;;;;;;5073175;28;19920;-70
2022/05/18 11:37:20;;;;;;;;;;;9.60;99.90;;;;;;5071885;28;20280;-70
2022/05/18 11:39:48;;;;;;;;;;;9.60;99.90;;;;;;5059944;28;20399;-71
2022/05/18 11:42:29;;;;;;;;;;;9.50;99.90;;;;;;5073026;28;19913;-71
2022/05/18 11:45:07;;;;;;;;;;;9.50;99.90;;;;;;5073112;28;20349;-71
2022/05/18 11:47:39;;;;;;;;;;;9.50;99.90;;;;;;5073018;28;19928;-71
2022/05/18 11:50:22;;;;;;;;;;;9.50;99.90;;;;;;5072981;28;19920;-70
2022/05/18 11:52:57;;;;;;;;;;;9.60;99.90;;;;;;5073158;28;19909;-70
2022/05/18 11:55:42;;;;;;;;;;;9.60;99.90;;;;;;5072497;28;20371;-69
2022/05/18 11:58:17;;;;;;;;;;;9.80;99.90;;;;;;5072090;28;19958;-70
2022/05/18 12:00:58;;;;;;;;;;;11.20;99.90;;;;;;5072399;28;20007;-70
2022/05/18 12:03:47;;;;;;;;;;;9.60;99.90;;;;;;5072493;28;19955;-71
2022/05/18 12:06:13;;;;;;;;;;;9.60;99.90;;;;;;5072779;28;20237;-70
2022/05/18 12:08:38;;;;;;;;;;;9.50;99.90;;;;;;5072676;28;20383;-69
2022/05/18 12:11:09;;;;;;;;;;;9.50;99.90;;;;;;5072662;28;19954;-69
2022/05/18 12:13:37;;;;;;;;;;;9.50;99.90;;;;;;5072158;28;19947;-70
2022/05/18 12:16:06;;;;;;;;;;;9.60;99.90;;;;;;5072330;28;20378;-70
2022/05/18 12:18:42;;;;;;;;;;;9.70;99.90;;;;;;5072298;28;20271;-70
2022/05/18 12:21:11;;;;;;;;;;;9.70;99.90;;;;;;5072285;28;19927;-70
2022/05/18 12:23:40;;;;;;;;;;;9.70;99.90;;;;;;5070611;28;19928;-69
2022/05/18 12:26:06;;;;;;;;;;;9.70;99.90;;;;;;5071934;28;19999;-70
2022/05/18 12:28:32;;;;;;;;;;;9.70;99.90;;;;;;5072139;28;19917;-71
2022/05/18 12:31:00;;;;;;;;;;;9.70;99.90;;;;;;5071859;28;19947;-70
2022/05/18 12:33:25;;;;;;;;;;;9.70;99.90;;;;;;5071042;28;20421;-70
2022/05/18 12:36:03;;;;;;;;;;;9.60;99.90;;;;;;5071796;28;19909;-70
2022/05/18 12:38:32;;;;;;;;;;;9.60;99.90;;;;;;5071929;28;19924;-70
2022/05/18 12:41:13;;;;;;;;;;;9.60;99.90;;;;;;5071865;28;19912;-70
2022/05/18 12:43:40;;;;;;;;;;;9.60;99.90;;;;;;5087190;28;19974;-70
2022/05/18 12:46:11;;;;;;;;;;;9.70;99.90;;;;;;5071819;28;19913;-70
2022/05/18 12:48:38;;;;;;;;;;;9.70;99.90;;;;;;5071632;28;19969;-70
2022/05/18 12:51:08;;;;;;;;;;;9.80;99.90;;;;;;5072249;28;20427;-70
2022/05/18 12:53:41;;;;;;;;;;;9.80;99.90;;;;;;5086865;28;19971;-70
2022/05/18 12:56:14;;;;;;;;;;;9.80;99.90;;;;;;5070249;28;19908;-70
2022/05/18 12:58:43;;;;;;;;;;;9.90;99.90;;;;;;5071525;28;20390;-70
2022/05/18 13:01:16;;;;;;;;;;;10.00;99.90;;;;;;5071514;28;19921;-70
2022/05/18 13:03:53;;;;;;;;;;;10.10;99.90;;;;;;5071515;28;19974;-70
2022/05/18 13:06:29;;;;;;;;;;;10.30;99.90;;;;;;5070015;28;19919;-69
2022/05/18 13:08:57;;;;;;;;;;;10.40;99.90;;;;;;5071683;28;19917;-71
2022/05/18 13:11:23;;;;;;;;;;;10.50;99.90;;;;;;5071599;28;19920;-70
2022/05/18 13:13:57;;;;;;;;;;;10.60;99.90;;;;;;5071249;28;19925;-70
2022/05/18 13:16:49;;;;;;;;;;;10.70;99.90;;;;;;5071430;28;19908;-70
2022/05/18 13:19:18;;;;;;;;;;;10.80;99.90;;;;;;5047494;28;19913;-71
2022/05/18 13:21:44;;;;;;;;;;;10.80;99.90;;;;;;5071484;28;19999;-70
2022/05/18 13:24:15;;;;;;;;;;;11.00;99.90;;;;;;5069777;28;19920;-70
2022/05/18 13:26:46;;;;;;;;;;;11.00;99.90;;;;;;5071470;28;20321;-70
2022/05/18 13:29:16;;;;;;;;;;;11.10;99.90;;;;;;5071285;28;19970;-70
2022/05/18 13:31:43;;;;;;;;;;;11.10;99.90;;;;;;5071333;28;19960;-70
2022/05/18 13:34:09;;;;;;;;;;;11.10;99.90;;;;;;5071196;28;20023;-71
2022/05/18 13:36:34;;;;;;;;;;;11.00;99.90;;;;;;5071588;28;20042;-70
2022/05/18 13:39:07;;;;;;;;;;;11.10;99.90;;;;;;5070951;28;19925;-70
2022/05/18 13:41:33;;;;;;;;;;;11.10;99.90;;;;;;5071111;28;19908;-70
2022/05/18 13:44:01;;;;;;;;;;;11.10;99.90;;;;;;5071147;28;20011;-71
2022/05/18 13:46:27;;;;;;;;;;;11.10;99.90;;;;;;5074802;28;19944;-71
2022/05/18 13:48:58;;;;;;;;;;;11.10;99.90;;;;;;5075037;28;20375;-69
2022/05/18 13:51:26;;;;;;;;;;;11.10;99.90;;;;;;5075149;28;19912;-71
2022/05/18 13:53:53;;;;;;;;;;;11.00;99.90;;;;;;5074878;28;19967;-70
2022/05/18 13:56:31;;;;;;;;;;;10.90;99.90;;;;;;5075257;28;19909;-70
2022/05/18 13:59:01;;;;;;;;;;;10.80;99.90;;;;;;5075098;28;19916;-70
2022/05/18 14:01:31;;;;;;;;;;;10.80;99.90;;;;;;5075243;28;20296;-70
2022/05/18 14:03:57;;;;;;;;;;;10.60;99.90;;;;;;5074918;28;19955;-70
2022/05/18 14:06:23;;;;;;;;;;;10.60;99.90;;;;;;5074935;28;20325;-71
2022/05/18 14:08:51;;;;;;;;;;;10.50;99.90;;;;;;5074771;28;19923;-70
2022/05/18 14:11:18;;;;;;;;;;;10.60;99.90;;;;;;5074920;28;19926;-70
2022/05/18 14:13:44;;;;;;;;;;;10.40;99.90;;;;;;5074428;28;19927;-70
2022/05/18 14:16:15;;;;;;;;;;;10.50;99.90;;;;;;5074547;28;19908;-70
2022/05/18 14:18:47;;;;;;;;;;;10.50;99.90;;;;;;5074547;28;19970;-70
2022/05/18 14:21:13;;;;;;;;;;;10.50;99.90;;;;;;5074585;28;19924;-72
2022/05/18 14:23:44;;;;;;;;;;;10.50;99.90;;;;;;5074476;28;20470;-69
2022/05/18 14:26:13;;;;;;;;;;;10.50;99.90;;;;;;5074713;28;20367;-70
2022/05/18 14:28:42;;;;;;;;;;;10.60;99.90;;;;;;5073879;28;19920;-70
2022/05/18 14:31:08;;;;;;;;;;;10.50;99.90;;;;;;5089870;28;20433;-69
2022/05/18 14:33:48;;;;;;;;;;;10.60;99.90;;;;;;5074046;28;20066;-70
2022/05/18 14:36:32;;;;;;;;;;;10.70;99.90;;;;;;5074094;28;19912;-69
2022/05/18 14:39:08;;;;;;;;;;;10.90;99.90;;;;;;5074161;28;20317;-69
2022/05/18 14:41:43;;;;;;;;;;;11.00;99.90;;;;;;5074054;28;20375;-70
2022/05/18 14:44:08;;;;;;;;;;;11.20;99.90;;;;;;5074158;28;19950;-70
2022/05/18 14:46:35;;;;;;;;;;;11.20;99.90;;;;;;5073782;28;19994;-69
2022/05/18 14:49:02;;;;;;;;;;;11.30;99.90;;;;;;5073914;28;19921;-70
2022/05/18 14:51:40;;;;;;;;;;;11.30;99.90;;;;;;5073799;28;20018;-69
2022/05/18 14:54:13;;;;;;;;;;;11.40;99.90;;;;;;5073560;28;19924;-69
2022/05/18 14:56:40;;;;;;;;;;;11.50;99.90;;;;;;5072737;28;19947;-69